sensor_id;sensor_type;location;lat;lon;timestamp;temperature;humidity
46490;DHT22;32204;49.160;8.580;2023-06-10T00:02:05;20.00;1.00
46490;DHT22;32204;49.160;8.580;2023-06-10T00:04:31;19.80;1.00
46490;DHT22;32204;49.160;8.580;2023-06-10T00:06:56;19.70;1.00
46490;DHT22;32204;49.160;8.580;2023-06-10T00:09:22;19.40;74.00
46490;DHT22;32204;49.160;8.580;2023-06-10T00:11:48;19.20;99.90
46490;DHT22;32204;49.160;8.580;2023-06-10T00:14:14;19.20;99.90
46490;DHT22;32204;49.160;8.580;2023-06-10T00:16:39;19.30;99.90
46490;DHT22;32204;49.160;8.580;2023-06-10T00:19:05;19.40;99.90
46490;DHT22;32204;49.160;8.580;2023-06-10T00:21:32;19.40;99.90
46490;DHT22;32204;49.160;8.580;2023-06-10T00:24:07;19.50;99.90
46490;DHT22;32204;49.160;8.580;2023-06-10T00:26:40;19.60;99.90
46490;DHT22;32204;49.160;8.580;2023-06-10T00:29:06;19.50;99.90
46490;DHT22;32204;49.160;8.580;2023-06-10T00:31:33;19.50;99.90
46490;DHT22;32204;49.160;8.580;2023-06-10T00:33:59;19.30;99.90
46490;DHT22;32204;49.160;8.580;2023-06-10T00:36:25;19.30;99.90
46490;DHT22;32204;49.160;8.580;2023-06-10T00:38:50;19.30;99.90
46490;DHT22;32204;49.160;8.580;2023-06-10T00:41:16;19.20;99.90
46490;DHT22;32204;49.160;8.580;2023-06-10T00:43:42;19.10;99.90
46490;DHT22;32204;49.160;8.580;2023-06-10T00:46:07;19.00;99.90
46490;DHT22;32204;49.160;8.580;2023-06-10T00:48:33;19.00;99.90
46490;DHT22;32204;49.160;8.580;2023-06-10T00:51:00;19.10;99.90
46490;DHT22;32204;49.160;8.580;2023-06-10T00:53:26;19.10;99.90
46490;DHT22;32204;49.160;8.580;2023-06-10T00:55:52;19.20;99.90
46490;DHT22;32204;49.160;8.580;2023-06-10T00:58:18;19.20;99.90
46490;DHT22;32204;49.160;8.580;2023-06-10T01:00:44;19.30;99.90
46490;DHT22;32204;49.160;8.580;2023-06-10T01:03:13;19.30;99.90
46490;DHT22;32204;49.160;8.580;2023-06-10T01:05:39;19.30;99.90
46490;DHT22;32204;49.160;8.580;2023-06-10T01:10:57;19.10;99.90
46490;DHT22;32204;49.160;8.580;2023-06-10T01:13:25;19.10;99.90
46490;DHT22;32204;49.160;8.580;2023-06-10T01:15:55;19.10;99.90
46490;DHT22;32204;49.160;8.580;2023-06-10T01:18:21;19.10;99.90
46490;DHT22;32204;49.160;8.580;2023-06-10T01:20:47;19.20;99.90
46490;DHT22;32204;49.160;8.580;2023-06-10T01:23:15;19.20;99.90
46490;DHT22;32204;49.160;8.580;2023-06-10T01:25:46;19.20;99.90
46490;DHT22;32204;49.160;8.580;2023-06-10T01:31:09;19.10;99.90
46490;DHT22;32204;49.160;8.580;2023-06-10T01:33:49;18.90;99.90
46490;DHT22;32204;49.160;8.580;2023-06-10T01:36:17;18.60;99.90
46490;DHT22;32204;49.160;8.580;2023-06-10T01:38:45;18.50;99.90
46490;DHT22;32204;49.160;8.580;2023-06-10T01:41:13;18.30;1.00
46490;DHT22;32204;49.160;8.580;2023-06-10T01:43:39;18.30;1.00
46490;DHT22;32204;49.160;8.580;2023-06-10T01:46:05;18.30;1.00
46490;DHT22;32204;49.160;8.580;2023-06-10T01:48:32;18.40;1.00
46490;DHT22;32204;49.160;8.580;2023-06-10T01:50:58;18.40;1.00
46490;DHT22;32204;49.160;8.580;2023-06-10T01:53:23;18.50;99.90
46490;DHT22;32204;49.160;8.580;2023-06-10T01:55:49;18.40;1.00
46490;DHT22;32204;49.160;8.580;2023-06-10T01:58:16;18.10;1.00
46490;DHT22;32204;49.160;8.580;2023-06-10T02:00:41;18.00;15.60
46490;DHT22;32204;49.160;8.580;2023-06-10T02:03:07;17.80;99.90
46490;DHT22;32204;49.160;8.580;2023-06-10T02:05:33;17.70;99.90
46490;DHT22;32204;49.160;8.580;2023-06-10T02:07:58;17.80;99.90
46490;DHT22;32204;49.160;8.580;2023-06-10T02:10:24;17.80;99.90
46490;DHT22;32204;49.160;8.580;2023-06-10T02:12:50;17.80;99.90
46490;DHT22;32204;49.160;8.580;2023-06-10T02:15:15;17.90;99.90
46490;DHT22;32204;49.160;8.580;2023-06-10T02:17:41;18.00;99.90
46490;DHT22;32204;49.160;8.580;2023-06-10T02:20:07;18.00;99.90
46490;DHT22;32204;49.160;8.580;2023-06-10T02:22:36;18.00;99.90
46490;DHT22;32204;49.160;8.580;2023-06-10T02:25:03;17.90;99.90
46490;DHT22;32204;49.160;8.580;2023-06-10T02:27:29;17.80;99.90
46490;DHT22;32204;49.160;8.580;2023-06-10T02:29:56;17.70;99.90
46490;DHT22;32204;49.160;8.580;2023-06-10T02:32:22;17.80;99.90
46490;DHT22;32204;49.160;8.580;2023-06-10T02:34:48;17.80;99.90
46490;DHT22;32204;49.160;8.580;2023-06-10T02:37:14;18.00;99.90
46490;DHT22;32204;49.160;8.580;2023-06-10T02:39:40;18.10;99.90
46490;DHT22;32204;49.160;8.580;2023-06-10T02:42:06;18.20;99.90
46490;DHT22;32204;49.160;8.580;2023-06-10T02:44:32;18.10;11.70
46490;DHT22;32204;49.160;8.580;2023-06-10T02:46:57;18.00;65.10
46490;DHT22;32204;49.160;8.580;2023-06-10T02:49:23;18.00;94.80
46490;DHT22;32204;49.160;8.580;2023-06-10T02:51:50;18.00;48.80
46490;DHT22;32204;49.160;8.580;2023-06-10T02:54:19;18.10;17.30
46490;DHT22;32204;49.160;8.580;2023-06-10T02:56:45;18.10;16.20
46490;DHT22;32204;49.160;8.580;2023-06-10T02:59:11;18.00;1.00
46490;DHT22;32204;49.160;8.580;2023-06-10T03:01:37;17.90;48.70
46490;DHT22;32204;49.160;8.580;2023-06-10T03:04:06;18.00;27.40
46490;DHT22;32204;49.160;8.580;2023-06-10T03:06:31;17.90;99.90
46490;DHT22;32204;49.160;8.580;2023-06-10T03:08:59;17.90;99.90
46490;DHT22;32204;49.160;8.580;2023-06-10T03:11:25;18.00;99.90
46490;DHT22;32204;49.160;8.580;2023-06-10T03:13:51;18.10;99.90
46490;DHT22;32204;49.160;8.580;2023-06-10T03:16:19;18.10;20.30
46490;DHT22;32204;49.160;8.580;2023-06-10T03:18:45;17.90;1.00
46490;DHT22;32204;49.160;8.580;2023-06-10T03:21:10;17.50;99.90
46490;DHT22;32204;49.160;8.580;2023-06-10T03:23:36;17.30;99.90
46490;DHT22;32204;49.160;8.580;2023-06-10T03:26:02;17.10;99.90
46490;DHT22;32204;49.160;8.580;2023-06-10T03:28:30;17.10;1.00
46490;DHT22;32204;49.160;8.580;2023-06-10T03:30:56;17.20;1.00
46490;DHT22;32204;49.160;8.580;2023-06-10T03:33:21;17.30;1.00
46490;DHT22;32204;49.160;8.580;2023-06-10T03:35:47;17.40;1.00
46490;DHT22;32204;49.160;8.580;2023-06-10T03:38:13;17.50;1.00
46490;DHT22;32204;49.160;8.580;2023-06-10T03:40:38;17.60;99.90
46490;DHT22;32204;49.160;8.580;2023-06-10T03:43:04;17.60;99.90
46490;DHT22;32204;49.160;8.580;2023-06-10T03:45:29;17.70;99.90
46490;DHT22;32204;49.160;8.580;2023-06-10T03:47:56;17.70;99.90
46490;DHT22;32204;49.160;8.580;2023-06-10T03:50:22;17.70;99.90
46490;DHT22;32204;49.160;8.580;2023-06-10T03:52:49;17.60;99.90
46490;DHT22;32204;49.160;8.580;2023-06-10T03:55:14;17.60;99.90
46490;DHT22;32204;49.160;8.580;2023-06-10T03:57:42;17.60;99.90
46490;DHT22;32204;49.160;8.580;2023-06-10T04:00:08;17.50;99.90
46490;DHT22;32204;49.160;8.580;2023-06-10T04:02:38;17.60;99.90
46490;DHT22;32204;49.160;8.580;2023-06-10T04:05:11;17.70;99.90
46490;DHT22;32204;49.160;8.580;2023-06-10T04:07:37;17.80;99.90
46490;DHT22;32204;49.160;8.580;2023-06-10T04:10:06;17.90;99.90
46490;DHT22;32204;49.160;8.580;2023-06-10T04:12:32;18.10;99.90
46490;DHT22;32204;49.160;8.580;2023-06-10T04:14:58;18.10;99.90
46490;DHT22;32204;49.160;8.580;2023-06-10T04:17:24;17.90;99.90
46490;DHT22;32204;49.160;8.580;2023-06-10T04:19:49;17.90;99.90
46490;DHT22;32204;49.160;8.580;2023-06-10T04:22:15;18.00;99.90
46490;DHT22;32204;49.160;8.580;2023-06-10T04:24:42;18.10;99.90
46490;DHT22;32204;49.160;8.580;2023-06-10T04:27:08;18.20;99.90
46490;DHT22;32204;49.160;8.580;2023-06-10T04:29:33;18.20;68.70
46490;DHT22;32204;49.160;8.580;2023-06-10T04:31:59;18.20;83.20
46490;DHT22;32204;49.160;8.580;2023-06-10T04:34:27;18.20;69.70
46490;DHT22;32204;49.160;8.580;2023-06-10T04:36:52;18.30;99.90
46490;DHT22;32204;49.160;8.580;2023-06-10T04:39:18;18.40;99.90
46490;DHT22;32204;49.160;8.580;2023-06-10T04:41:45;18.50;96.60
46490;DHT22;32204;49.160;8.580;2023-06-10T04:44:11;18.60;1.00
46490;DHT22;32204;49.160;8.580;2023-06-10T04:46:37;19.00;1.00
46490;DHT22;32204;49.160;8.580;2023-06-10T04:49:02;20.00;99.90
46490;DHT22;32204;49.160;8.580;2023-06-10T04:51:28;20.70;1.00
46490;DHT22;32204;49.160;8.580;2023-06-10T04:53:54;21.10;1.00
46490;DHT22;32204;49.160;8.580;2023-06-10T04:56:19;21.70;1.00
46490;DHT22;32204;49.160;8.580;2023-06-10T04:58:45;22.40;99.90
46490;DHT22;32204;49.160;8.580;2023-06-10T05:01:11;23.10;99.90
46490;DHT22;32204;49.160;8.580;2023-06-10T05:03:36;23.50;99.90
46490;DHT22;32204;49.160;8.580;2023-06-10T05:06:02;23.90;99.90
46490;DHT22;32204;49.160;8.580;2023-06-10T05:08:28;24.40;99.90
46490;DHT22;32204;49.160;8.580;2023-06-10T05:10:53;24.90;99.90
46490;DHT22;32204;49.160;8.580;2023-06-10T05:13:19;25.50;99.90
46490;DHT22;32204;49.160;8.580;2023-06-10T05:15:44;25.90;99.90
46490;DHT22;32204;49.160;8.580;2023-06-10T05:18:11;26.40;99.90
46490;DHT22;32204;49.160;8.580;2023-06-10T05:20:40;26.70;99.90
46490;DHT22;32204;49.160;8.580;2023-06-10T05:23:05;27.20;99.90
46490;DHT22;32204;49.160;8.580;2023-06-10T05:25:32;27.60;99.90
46490;DHT22;32204;49.160;8.580;2023-06-10T05:27:58;28.00;99.90
46490;DHT22;32204;49.160;8.580;2023-06-10T05:30:24;28.20;99.90
46490;DHT22;32204;49.160;8.580;2023-06-10T05:32:51;28.70;99.90
46490;DHT22;32204;49.160;8.580;2023-06-10T05:35:17;29.00;99.90
46490;DHT22;32204;49.160;8.580;2023-06-10T05:37:43;28.70;99.50
46490;DHT22;32204;49.160;8.580;2023-06-10T05:40:09;29.10;95.20
46490;DHT22;32204;49.160;8.580;2023-06-10T05:42:35;29.50;91.40
46490;DHT22;32204;49.160;8.580;2023-06-10T05:45:01;29.80;85.00
46490;DHT22;32204;49.160;8.580;2023-06-10T05:47:27;30.10;70.90
46490;DHT22;32204;49.160;8.580;2023-06-10T05:49:53;30.20;62.40
46490;DHT22;32204;49.160;8.580;2023-06-10T05:52:18;29.50;57.00
46490;DHT22;32204;49.160;8.580;2023-06-10T05:54:44;29.60;61.70
46490;DHT22;32204;49.160;8.580;2023-06-10T05:57:10;30.20;57.60
46490;DHT22;32204;49.160;8.580;2023-06-10T05:59:36;30.50;51.10
46490;DHT22;32204;49.160;8.580;2023-06-10T06:02:02;30.50;49.10
46490;DHT22;32204;49.160;8.580;2023-06-10T06:04:27;30.30;42.50
46490;DHT22;32204;49.160;8.580;2023-06-10T06:06:53;30.20;42.40
46490;DHT22;32204;49.160;8.580;2023-06-10T06:09:18;30.90;39.50
46490;DHT22;32204;49.160;8.580;2023-06-10T06:11:44;31.70;32.20
46490;DHT22;32204;49.160;8.580;2023-06-10T06:14:09;31.60;26.70
46490;DHT22;32204;49.160;8.580;2023-06-10T06:16:35;31.60;1.00
46490;DHT22;32204;49.160;8.580;2023-06-10T06:19:01;31.60;1.00
46490;DHT22;32204;49.160;8.580;2023-06-10T06:21:26;31.80;1.00
46490;DHT22;32204;49.160;8.580;2023-06-10T06:23:52;32.30;1.00
46490;DHT22;32204;49.160;8.580;2023-06-10T06:26:18;32.50;1.00
46490;DHT22;32204;49.160;8.580;2023-06-10T06:28:43;32.60;1.00
46490;DHT22;32204;49.160;8.580;2023-06-10T06:31:09;32.60;1.00
46490;DHT22;32204;49.160;8.580;2023-06-10T06:33:35;32.00;1.00
46490;DHT22;32204;49.160;8.580;2023-06-10T06:36:01;31.70;1.00
46490;DHT22;32204;49.160;8.580;2023-06-10T06:38:26;30.90;1.00
46490;DHT22;32204;49.160;8.580;2023-06-10T06:40:53;30.00;1.00
46490;DHT22;32204;49.160;8.580;2023-06-10T06:43:19;28.60;1.00
46490;DHT22;32204;49.160;8.580;2023-06-10T06:45:45;27.80;1.00
46490;DHT22;32204;49.160;8.580;2023-06-10T06:48:11;27.40;1.00
46490;DHT22;32204;49.160;8.580;2023-06-10T06:50:37;26.90;1.00
46490;DHT22;32204;49.160;8.580;2023-06-10T06:53:03;26.30;1.00
46490;DHT22;32204;49.160;8.580;2023-06-10T06:55:29;26.10;1.00
46490;DHT22;32204;49.160;8.580;2023-06-10T06:57:55;26.30;1.00
46490;DHT22;32204;49.160;8.580;2023-06-10T07:00:21;26.50;1.00
46490;DHT22;32204;49.160;8.580;2023-06-10T07:02:47;26.00;1.00
46490;DHT22;32204;49.160;8.580;2023-06-10T07:05:13;25.70;1.00
46490;DHT22;32204;49.160;8.580;2023-06-10T07:07:38;25.60;4.40
46490;DHT22;32204;49.160;8.580;2023-06-10T07:10:04;25.40;14.40
46490;DHT22;32204;49.160;8.580;2023-06-10T07:12:30;25.10;19.70
46490;DHT22;32204;49.160;8.580;2023-06-10T07:14:56;25.00;24.70
46490;DHT22;32204;49.160;8.580;2023-06-10T07:17:21;25.00;37.90
46490;DHT22;32204;49.160;8.580;2023-06-10T07:19:47;25.10;29.80
46490;DHT22;32204;49.160;8.580;2023-06-10T07:22:13;25.10;38.30
46490;DHT22;32204;49.160;8.580;2023-06-10T07:24:39;25.00;37.70
46490;DHT22;32204;49.160;8.580;2023-06-10T07:27:05;25.10;38.30
46490;DHT22;32204;49.160;8.580;2023-06-10T07:29:31;25.00;41.80
46490;DHT22;32204;49.160;8.580;2023-06-10T07:31:56;24.90;55.50
46490;DHT22;32204;49.160;8.580;2023-06-10T07:34:22;25.00;55.40
46490;DHT22;32204;49.160;8.580;2023-06-10T07:36:48;25.20;48.60
46490;DHT22;32204;49.160;8.580;2023-06-10T07:39:13;25.20;39.60
46490;DHT22;32204;49.160;8.580;2023-06-10T07:41:39;25.20;43.90
46490;DHT22;32204;49.160;8.580;2023-06-10T07:44:04;25.20;42.10
46490;DHT22;32204;49.160;8.580;2023-06-10T07:46:30;25.10;42.40
46490;DHT22;32204;49.160;8.580;2023-06-10T07:48:55;24.90;40.40
46490;DHT22;32204;49.160;8.580;2023-06-10T07:51:21;24.90;43.20
46490;DHT22;32204;49.160;8.580;2023-06-10T07:53:47;24.80;45.90
46490;DHT22;32204;49.160;8.580;2023-06-10T07:56:13;24.70;65.30
46490;DHT22;32204;49.160;8.580;2023-06-10T07:58:38;24.90;61.00
46490;DHT22;32204;49.160;8.580;2023-06-10T08:01:04;25.10;48.40
46490;DHT22;32204;49.160;8.580;2023-06-10T08:03:30;25.30;46.30
46490;DHT22;32204;49.160;8.580;2023-06-10T08:05:55;25.50;38.20
46490;DHT22;32204;49.160;8.580;2023-06-10T08:08:21;25.40;38.30
46490;DHT22;32204;49.160;8.580;2023-06-10T08:10:46;25.30;41.10
46490;DHT22;32204;49.160;8.580;2023-06-10T08:13:12;25.30;42.80
46490;DHT22;32204;49.160;8.580;2023-06-10T08:15:38;25.50;38.80
46490;DHT22;32204;49.160;8.580;2023-06-10T08:18:03;25.60;42.20
46490;DHT22;32204;49.160;8.580;2023-06-10T08:20:29;25.80;34.90
46490;DHT22;32204;49.160;8.580;2023-06-10T08:22:55;26.10;41.00
46490;DHT22;32204;49.160;8.580;2023-06-10T08:25:20;26.30;27.00
46490;DHT22;32204;49.160;8.580;2023-06-10T08:27:49;26.60;25.80
46490;DHT22;32204;49.160;8.580;2023-06-10T08:30:16;26.90;9.30
46490;DHT22;32204;49.160;8.580;2023-06-10T08:32:42;27.20;7.10
46490;DHT22;32204;49.160;8.580;2023-06-10T08:35:07;27.10;1.40
46490;DHT22;32204;49.160;8.580;2023-06-10T08:37:33;27.10;1.00
46490;DHT22;32204;49.160;8.580;2023-06-10T08:39:59;27.10;1.00
46490;DHT22;32204;49.160;8.580;2023-06-10T08:42:40;26.50;1.00
46490;DHT22;32204;49.160;8.580;2023-06-10T08:45:07;26.70;5.00
46490;DHT22;32204;49.160;8.580;2023-06-10T08:47:39;26.70;2.40
46490;DHT22;32204;49.160;8.580;2023-06-10T08:50:07;26.60;1.00
46490;DHT22;32204;49.160;8.580;2023-06-10T08:52:36;26.70;1.50
46490;DHT22;32204;49.160;8.580;2023-06-10T08:55:21;26.90;5.70
46490;DHT22;32204;49.160;8.580;2023-06-10T08:57:51;26.90;1.00
46490;DHT22;32204;49.160;8.580;2023-06-10T09:00:18;27.00;1.00
46490;DHT22;32204;49.160;8.580;2023-06-10T09:02:44;27.00;1.00
46490;DHT22;32204;49.160;8.580;2023-06-10T09:05:10;26.80;1.20
46490;DHT22;32204;49.160;8.580;2023-06-10T09:07:36;26.70;1.00
46490;DHT22;32204;49.160;8.580;2023-06-10T09:10:03;26.90;1.00
46490;DHT22;32204;49.160;8.580;2023-06-10T09:12:33;27.00;1.00
46490;DHT22;32204;49.160;8.580;2023-06-10T09:15:00;26.90;1.00
46490;DHT22;32204;49.160;8.580;2023-06-10T09:17:27;26.90;1.00
46490;DHT22;32204;49.160;8.580;2023-06-10T09:19:53;26.90;1.00
46490;DHT22;32204;49.160;8.580;2023-06-10T09:22:23;27.00;1.00
46490;DHT22;32204;49.160;8.580;2023-06-10T09:24:49;27.00;1.00
46490;DHT22;32204;49.160;8.580;2023-06-10T09:27:14;27.00;1.00
46490;DHT22;32204;49.160;8.580;2023-06-10T09:29:51;26.70;1.00
46490;DHT22;32204;49.160;8.580;2023-06-10T09:32:18;26.70;1.00
46490;DHT22;32204;49.160;8.580;2023-06-10T09:34:44;26.60;1.00
46490;DHT22;32204;49.160;8.580;2023-06-10T09:37:10;26.70;1.00
46490;DHT22;32204;49.160;8.580;2023-06-10T09:39:38;26.70;1.00
46490;DHT22;32204;49.160;8.580;2023-06-10T09:42:24;26.90;1.00
46490;DHT22;32204;49.160;8.580;2023-06-10T09:44:52;27.00;1.00
46490;DHT22;32204;49.160;8.580;2023-06-10T09:47:22;27.10;1.00
46490;DHT22;32204;49.160;8.580;2023-06-10T09:49:49;27.30;1.00
46490;DHT22;32204;49.160;8.580;2023-06-10T09:52:21;27.50;1.00
46490;DHT22;32204;49.160;8.580;2023-06-10T09:54:47;27.40;1.00
46490;DHT22;32204;49.160;8.580;2023-06-10T09:57:13;27.40;1.00
46490;DHT22;32204;49.160;8.580;2023-06-10T09:59:40;27.30;1.00
46490;DHT22;32204;49.160;8.580;2023-06-10T10:02:06;27.40;1.00
46490;DHT22;32204;49.160;8.580;2023-06-10T10:04:35;27.40;1.00
46490;DHT22;32204;49.160;8.580;2023-06-10T10:07:01;27.60;1.00
46490;DHT22;32204;49.160;8.580;2023-06-10T10:09:26;27.90;1.00
46490;DHT22;32204;49.160;8.580;2023-06-10T10:11:53;28.00;1.00
46490;DHT22;32204;49.160;8.580;2023-06-10T10:14:21;27.80;1.00
46490;DHT22;32204;49.160;8.580;2023-06-10T10:16:47;27.80;1.00
46490;DHT22;32204;49.160;8.580;2023-06-10T10:19:28;28.00;1.00
46490;DHT22;32204;49.160;8.580;2023-06-10T10:22:06;28.10;1.00
46490;DHT22;32204;49.160;8.580;2023-06-10T10:24:38;27.80;1.00
46490;DHT22;32204;49.160;8.580;2023-06-10T10:27:11;28.10;1.00
46490;DHT22;32204;49.160;8.580;2023-06-10T10:29:39;28.40;1.00
46490;DHT22;32204;49.160;8.580;2023-06-10T10:32:07;28.40;1.00
46490;DHT22;32204;49.160;8.580;2023-06-10T10:34:39;28.00;1.00
46490;DHT22;32204;49.160;8.580;2023-06-10T10:37:08;28.00;1.00
46490;DHT22;32204;49.160;8.580;2023-06-10T10:39:34;28.10;1.00
46490;DHT22;32204;49.160;8.580;2023-06-10T10:42:01;28.20;1.00
46490;DHT22;32204;49.160;8.580;2023-06-10T10:44:29;28.20;1.00
46490;DHT22;32204;49.160;8.580;2023-06-10T10:46:55;28.40;1.00
46490;DHT22;32204;49.160;8.580;2023-06-10T10:49:22;28.60;1.00
46490;DHT22;32204;49.160;8.580;2023-06-10T10:52:03;28.80;1.00
46490;DHT22;32204;49.160;8.580;2023-06-10T10:54:35;29.00;1.00
46490;DHT22;32204;49.160;8.580;2023-06-10T10:57:17;28.90;1.00
46490;DHT22;32204;49.160;8.580;2023-06-10T10:59:58;28.70;1.00
46490;DHT22;32204;49.160;8.580;2023-06-10T11:02:44;29.00;1.00
46490;DHT22;32204;49.160;8.580;2023-06-10T11:05:14;29.00;1.00
46490;DHT22;32204;49.160;8.580;2023-06-10T11:07:39;29.20;1.00
46490;DHT22;32204;49.160;8.580;2023-06-10T11:10:10;29.00;1.00
46490;DHT22;32204;49.160;8.580;2023-06-10T11:15:13;28.90;1.00
46490;DHT22;32204;49.160;8.580;2023-06-10T11:20:51;29.00;1.00
46490;DHT22;32204;49.160;8.580;2023-06-10T11:26:10;28.90;1.00
46490;DHT22;32204;49.160;8.580;2023-06-10T11:28:37;28.90;1.00
46490;DHT22;32204;49.160;8.580;2023-06-10T11:31:03;28.80;1.00
46490;DHT22;32204;49.160;8.580;2023-06-10T11:33:28;28.70;1.00
46490;DHT22;32204;49.160;8.580;2023-06-10T11:35:54;28.50;1.00
46490;DHT22;32204;49.160;8.580;2023-06-10T11:38:20;28.50;1.00
46490;DHT22;32204;49.160;8.580;2023-06-10T11:40:48;28.60;1.00
46490;DHT22;32204;49.160;8.580;2023-06-10T11:43:18;28.80;1.00
46490;DHT22;32204;49.160;8.580;2023-06-10T11:45:44;29.00;1.00
46490;DHT22;32204;49.160;8.580;2023-06-10T11:48:10;29.20;1.00
46490;DHT22;32204;49.160;8.580;2023-06-10T11:50:36;29.00;1.00
46490;DHT22;32204;49.160;8.580;2023-06-10T11:53:02;28.90;1.00
46490;DHT22;32204;49.160;8.580;2023-06-10T11:55:45;29.00;1.00
46490;DHT22;32204;49.160;8.580;2023-06-10T11:58:16;29.20;1.00
46490;DHT22;32204;49.160;8.580;2023-06-10T12:00:52;29.20;1.00
46490;DHT22;32204;49.160;8.580;2023-06-10T12:03:19;29.30;1.00
46490;DHT22;32204;49.160;8.580;2023-06-10T12:06:04;29.30;1.00
46490;DHT22;32204;49.160;8.580;2023-06-10T12:08:30;29.30;1.00
46490;DHT22;32204;49.160;8.580;2023-06-10T12:10:57;29.40;1.00
46490;DHT22;32204;49.160;8.580;2023-06-10T12:13:25;29.20;1.00
46490;DHT22;32204;49.160;8.580;2023-06-10T12:15:50;29.10;1.00
46490;DHT22;32204;49.160;8.580;2023-06-10T12:20:43;28.90;1.00
46490;DHT22;32204;49.160;8.580;2023-06-10T12:23:12;28.80;1.00
46490;DHT22;32204;49.160;8.580;2023-06-10T12:25:38;28.70;1.00
46490;DHT22;32204;49.160;8.580;2023-06-10T12:28:05;28.70;1.00
46490;DHT22;32204;49.160;8.580;2023-06-10T12:30:32;28.90;1.00
46490;DHT22;32204;49.160;8.580;2023-06-10T12:32:58;29.20;1.00
46490;DHT22;32204;49.160;8.580;2023-06-10T12:35:26;29.30;1.00
46490;DHT22;32204;49.160;8.580;2023-06-10T12:38:03;29.30;1.00
46490;DHT22;32204;49.160;8.580;2023-06-10T12:40:33;29.30;1.00
46490;DHT22;32204;49.160;8.580;2023-06-10T12:43:00;29.50;1.00
46490;DHT22;32204;49.160;8.580;2023-06-10T12:45:31;29.50;1.00
46490;DHT22;32204;49.160;8.580;2023-06-10T12:48:12;29.60;1.00
46490;DHT22;32204;49.160;8.580;2023-06-10T12:50:40;29.40;1.00
46490;DHT22;32204;49.160;8.580;2023-06-10T12:53:07;29.30;1.00
46490;DHT22;32204;49.160;8.580;2023-06-10T12:55:33;29.20;1.00
46490;DHT22;32204;49.160;8.580;2023-06-10T12:57:59;29.00;1.00
46490;DHT22;32204;49.160;8.580;2023-06-10T13:00:27;29.10;1.00
46490;DHT22;32204;49.160;8.580;2023-06-10T13:02:55;29.40;1.00
46490;DHT22;32204;49.160;8.580;2023-06-10T13:05:22;29.70;1.00
46490;DHT22;32204;49.160;8.580;2023-06-10T13:07:48;29.50;1.00
46490;DHT22;32204;49.160;8.580;2023-06-10T13:10:14;29.40;1.00
46490;DHT22;32204;49.160;8.580;2023-06-10T13:12:44;29.60;1.00
46490;DHT22;32204;49.160;8.580;2023-06-10T13:15:11;29.50;1.00
46490;DHT22;32204;49.160;8.580;2023-06-10T13:17:37;29.50;1.00
46490;DHT22;32204;49.160;8.580;2023-06-10T13:20:03;29.70;1.00
46490;DHT22;32204;49.160;8.580;2023-06-10T13:22:32;29.80;1.00
46490;DHT22;32204;49.160;8.580;2023-06-10T13:24:59;29.80;1.00
46490;DHT22;32204;49.160;8.580;2023-06-10T13:27:28;29.80;1.00
46490;DHT22;32204;49.160;8.580;2023-06-10T13:29:54;29.80;1.00
46490;DHT22;32204;49.160;8.580;2023-06-10T13:32:19;29.90;1.00
46490;DHT22;32204;49.160;8.580;2023-06-10T13:34:46;29.80;1.00
46490;DHT22;32204;49.160;8.580;2023-06-10T13:37:11;30.20;1.00
46490;DHT22;32204;49.160;8.580;2023-06-10T13:39:38;30.20;1.00
46490;DHT22;32204;49.160;8.580;2023-06-10T13:42:04;30.30;1.00
46490;DHT22;32204;49.160;8.580;2023-06-10T13:44:30;30.40;1.00
46490;DHT22;32204;49.160;8.580;2023-06-10T13:46:59;30.30;1.00
46490;DHT22;32204;49.160;8.580;2023-06-10T13:49:24;30.20;1.00
46490;DHT22;32204;49.160;8.580;2023-06-10T13:51:50;29.90;1.00
46490;DHT22;32204;49.160;8.580;2023-06-10T13:54:16;29.90;1.00
46490;DHT22;32204;49.160;8.580;2023-06-10T13:56:41;30.10;1.00
46490;DHT22;32204;49.160;8.580;2023-06-10T13:59:07;30.20;1.00
46490;DHT22;32204;49.160;8.580;2023-06-10T14:01:33;30.10;1.00
46490;DHT22;32204;49.160;8.580;2023-06-10T14:03:59;30.00;1.00
46490;DHT22;32204;49.160;8.580;2023-06-10T14:06:26;30.10;1.00
46490;DHT22;32204;49.160;8.580;2023-06-10T14:08:52;30.30;1.00
46490;DHT22;32204;49.160;8.580;2023-06-10T14:11:20;30.40;1.00
46490;DHT22;32204;49.160;8.580;2023-06-10T14:13:46;30.30;1.00
46490;DHT22;32204;49.160;8.580;2023-06-10T14:16:12;30.30;1.00
46490;DHT22;32204;49.160;8.580;2023-06-10T14:18:37;30.30;1.00
46490;DHT22;32204;49.160;8.580;2023-06-10T14:21:03;30.20;1.00
46490;DHT22;32204;49.160;8.580;2023-06-10T14:23:28;30.30;1.00
46490;DHT22;32204;49.160;8.580;2023-06-10T14:25:54;30.40;1.00
46490;DHT22;32204;49.160;8.580;2023-06-10T14:28:19;30.40;1.00
46490;DHT22;32204;49.160;8.580;2023-06-10T14:30:45;30.40;1.00
46490;DHT22;32204;49.160;8.580;2023-06-10T14:33:11;30.30;1.00
46490;DHT22;32204;49.160;8.580;2023-06-10T14:35:36;30.20;1.00
46490;DHT22;32204;49.160;8.580;2023-06-10T14:38:02;30.30;1.00
46490;DHT22;32204;49.160;8.580;2023-06-10T14:40:28;30.40;1.00
46490;DHT22;32204;49.160;8.580;2023-06-10T14:42:55;30.30;1.00
46490;DHT22;32204;49.160;8.580;2023-06-10T14:45:20;30.40;1.00
46490;DHT22;32204;49.160;8.580;2023-06-10T14:47:46;30.30;1.00
46490;DHT22;32204;49.160;8.580;2023-06-10T14:50:12;30.40;1.00
46490;DHT22;32204;49.160;8.580;2023-06-10T14:52:38;30.50;1.00
46490;DHT22;32204;49.160;8.580;2023-06-10T14:55:04;30.50;1.00
46490;DHT22;32204;49.160;8.580;2023-06-10T14:57:30;30.50;1.00
46490;DHT22;32204;49.160;8.580;2023-06-10T14:59:56;30.50;1.00
46490;DHT22;32204;49.160;8.580;2023-06-10T15:02:22;30.50;1.00
46490;DHT22;32204;49.160;8.580;2023-06-10T15:04:47;30.50;1.00
46490;DHT22;32204;49.160;8.580;2023-06-10T15:07:13;30.40;1.00
46490;DHT22;32204;49.160;8.580;2023-06-10T15:09:41;30.40;1.00
46490;DHT22;32204;49.160;8.580;2023-06-10T15:12:07;30.50;1.00
46490;DHT22;32204;49.160;8.580;2023-06-10T15:14:32;30.80;1.00
46490;DHT22;32204;49.160;8.580;2023-06-10T15:16:58;30.60;1.00
46490;DHT22;32204;49.160;8.580;2023-06-10T15:19:25;30.50;1.00
46490;DHT22;32204;49.160;8.580;2023-06-10T15:21:51;30.90;1.00
46490;DHT22;32204;49.160;8.580;2023-06-10T15:24:17;31.00;1.00
46490;DHT22;32204;49.160;8.580;2023-06-10T15:26:42;30.90;1.00
46490;DHT22;32204;49.160;8.580;2023-06-10T15:29:08;30.70;1.00
46490;DHT22;32204;49.160;8.580;2023-06-10T15:31:34;30.60;1.00
46490;DHT22;32204;49.160;8.580;2023-06-10T15:34:00;30.70;1.00
46490;DHT22;32204;49.160;8.580;2023-06-10T15:36:26;30.80;1.00
46490;DHT22;32204;49.160;8.580;2023-06-10T15:38:53;30.60;1.00
46490;DHT22;32204;49.160;8.580;2023-06-10T15:41:19;30.60;1.00
46490;DHT22;32204;49.160;8.580;2023-06-10T15:43:45;30.60;1.00
46490;DHT22;32204;49.160;8.580;2023-06-10T15:46:11;30.60;1.00
46490;DHT22;32204;49.160;8.580;2023-06-10T15:48:37;30.80;1.00
46490;DHT22;32204;49.160;8.580;2023-06-10T15:51:03;30.60;1.00
46490;DHT22;32204;49.160;8.580;2023-06-10T15:53:28;30.70;1.00
46490;DHT22;32204;49.160;8.580;2023-06-10T15:55:54;30.70;1.00